Wetterdaten: Woche 13.10.08 - 19.10.08 (KW42)
Datum Zeit Temperatur Luftfeuchte Luftdruck Niederschlag Wind Richtung Sonnenschein Solar Taupunkt Windchill Windben
13.10.2008 00:00 11.5 C 100 % 1026.3 hPa 0.0 l/m 0.3 km/h (0 Bft) O-SO 0.00 h 0 W/m 11.5 C 11.5 C 0.9 km/h (0 Bft)
13.10.2008 01:00 11.5 C 100 % 1026.2 hPa 0.0 l/m 0.2 km/h (0 Bft) O-SO 0.00 h 0 W/m 11.5 C 11.5 C 0.5 km/h (0 Bft)
13.10.2008 02:00 11.5 C 100 % 1026.1 hPa 0.0 l/m 0.5 km/h (0 Bft) O-SO 0.00 h 0 W/m 11.5 C 11.5 C 1.3 km/h (1 Bft)
13.10.2008 03:00 11.1 C 100 % 1025.8 hPa 0.0 l/m 1.0 km/h (0 Bft) O-SO 0.00 h 0 W/m 11.1 C 11.1 C 2.2 km/h (1 Bft)
13.10.2008 04:00 10.5 C 100 % 1025.2 hPa 0.0 l/m 1.9 km/h (1 Bft) O-SO 0.00 h 0 W/m 10.5 C 10.5 C 3.9 km/h (1 Bft)
13.10.2008 05:00 10.3 C 100 % 1025.0 hPa 0.0 l/m 0.9 km/h (0 Bft) O-SO 0.00 h 0 W/m 10.3 C 10.3 C 2.7 km/h (1 Bft)
13.10.2008 06:00 10.5 C 100 % 1024.7 hPa 0.0 l/m 0.5 km/h (0 Bft) O-SO 0.00 h 0 W/m 10.5 C 10.5 C 1.3 km/h (1 Bft)
13.10.2008 07:00 10.1 C 100 % 1024.4 hPa 0.0 l/m 0.0 km/h (0 Bft) O-SO 0.00 h 5 W/m 10.1 C 10.1 C 0.5 km/h (0 Bft)
13.10.2008 08:00 10.4 C 100 % 1024.4 hPa 0.0 l/m 0.2 km/h (0 Bft) O-SO 0.00 h 18 W/m 10.4 C 10.4 C 0.7 km/h (0 Bft)
13.10.2008 09:00 10.7 C 100 % 1024.8 hPa 0.0 l/m 0.3 km/h (0 Bft) O-SO 0.03 h 97 W/m 10.7 C 10.7 C 1.1 km/h (1 Bft)
13.10.2008 10:00 11.6 C 100 % 1024.9 hPa 0.0 l/m 0.4 km/h (0 Bft) O-SO 0.08 h 163 W/m 11.6 C 11.6 C 1.0 km/h (0 Bft)
13.10.2008 11:00 12.6 C 100 % 1024.8 hPa 0.0 l/m 0.4 km/h (0 Bft) NO 0.08 h 179 W/m 12.6 C 12.6 C 1.2 km/h (1 Bft)
13.10.2008 12:00 14.3 C 90 % 1024.0 hPa 0.0 l/m 0.7 km/h (0 Bft) O-NO 0.50 h 338 W/m 12.7 C 14.3 C 1.9 km/h (1 Bft)
13.10.2008 13:00 16.2 C 81 % 1023.2 hPa 0.0 l/m 0.9 km/h (0 Bft) W-SW 0.58 h 349 W/m 12.9 C 16.2 C 2.6 km/h (1 Bft)
13.10.2008 14:00 18.3 C 75 % 1022.2 hPa 0.0 l/m 1.2 km/h (1 Bft) NW 1.00 h 440 W/m 13.8 C 18.3 C 3.0 km/h (1 Bft)
13.10.2008 15:00 19.7 C 73 % 1021.4 hPa 0.0 l/m 2.2 km/h (1 Bft) N 1.00 h 365 W/m 14.7 C 19.7 C 4.1 km/h (1 Bft)
13.10.2008 16:00 20.1 C 72 % 1020.9 hPa 0.0 l/m 1.2 km/h (1 Bft) N-NW 0.75 h 231 W/m 14.9 C 20.1 C 2.9 km/h (1 Bft)
13.10.2008 17:00 19.0 C 76 % 1021.0 hPa 0.0 l/m 1.1 km/h (0 Bft) N-NW 0.08 h 90 W/m 14.6 C 19.0 C 2.2 km/h (1 Bft)
13.10.2008 18:00 18.2 C 77 % 1020.8 hPa 0.0 l/m 0.4 km/h (0 Bft) N-NW 0.03 h 21 W/m 14.1 C 18.2 C 1.6 km/h (1 Bft)
13.10.2008 19:00 16.4 C 83 % 1021.2 hPa 0.0 l/m 0.9 km/h (0 Bft) O 0.00 h 0 W/m 13.5 C 16.4 C 1.8 km/h (1 Bft)
13.10.2008 20:00 15.3 C 88 % 1021.9 hPa 0.0 l/m 0.9 km/h (0 Bft) O-SO 0.00 h 0 W/m 13.3 C 15.3 C 1.7 km/h (1 Bft)
13.10.2008 21:00 14.0 C 93 % 1022.3 hPa 0.0 l/m 0.8 km/h (0 Bft) O-SO 0.00 h 0 W/m 12.9 C 14.0 C 1.8 km/h (1 Bft)
13.10.2008 22:00 13.3 C 96 % 1022.8 hPa 0.0 l/m 0.1 km/h (0 Bft) O-SO 0.00 h 0 W/m 12.6 C 13.3 C 0.3 km/h (0 Bft)
13.10.2008 23:00 12.6 C 98 % 1023.0 hPa 0.0 l/m 0.2 km/h (0 Bft) O-SO 0.00 h 0 W/m 12.3 C 12.6 C 0.7 km/h (0 Bft)
14.10.2008 00:00 12.6 C 99 % 1022.9 hPa 0.0 l/m 0.9 km/h (0 Bft) O-SO 0.00 h 0 W/m 12.4 C 12.6 C 1.9 km/h (1 Bft)
14.10.2008 01:00 12.4 C 98 % 1022.7 hPa 0.0 l/m 0.4 km/h (0 Bft) O-SO 0.00 h 0 W/m 12.1 C 12.4 C 1.0 km/h (0 Bft)
14.10.2008 02:00 12.3 C 99 % 1022.6 hPa 0.0 l/m 1.8 km/h (1 Bft) O-SO 0.00 h 0 W/m 12.1 C 12.3 C 3.1 km/h (1 Bft)
14.10.2008 03:00 11.9 C 98 % 1022.1 hPa 0.0 l/m 0.3 km/h (0 Bft) O-SO 0.00 h 0 W/m 11.7 C 11.9 C 0.8 km/h (0 Bft)
14.10.2008 04:00 10.9 C 99 % 1021.9 hPa 0.0 l/m 0.1 km/h (0 Bft) O-SO 0.00 h 0 W/m 10.9 C 10.9 C 0.1 km/h (0 Bft)
14.10.2008 05:00 10.4 C 100 % 1021.8 hPa 0.2 l/m 0.3 km/h (0 Bft) O-SO 0.00 h 0 W/m 10.4 C 10.4 C 0.8 km/h (0 Bft)
14.10.2008 06:00 10.6 C 100 % 1021.8 hPa 0.0 l/m 0.2 km/h (0 Bft) O-SO 0.00 h 0 W/m 10.6 C 10.6 C 0.5 km/h (0 Bft)
14.10.2008 07:00 10.5 C 100 % 1022.1 hPa 0.0 l/m 0.1 km/h (0 Bft) O-SO 0.00 h 7 W/m 10.5 C 10.5 C 0.5 km/h (0 Bft)
14.10.2008 08:00 10.9 C 100 % 1022.5 hPa 0.0 l/m 0.0 km/h (0 Bft) N 0.00 h 37 W/m 10.9 C 10.9 C 0.1 km/h (0 Bft)
14.10.2008 09:00 11.9 C 100 % 1022.9 hPa 0.0 l/m 0.0 km/h (0 Bft) N 0.10 h 99 W/m 11.9 C 11.9 C 0.1 km/h (0 Bft)
14.10.2008 10:00 13.6 C 97 % 1022.9 hPa 0.0 l/m 1.0 km/h (0 Bft) N-NW 0.60 h 237 W/m 13.2 C 13.6 C 2.3 km/h (1 Bft)
14.10.2008 11:00 15.9 C 87 % 1022.7 hPa 0.0 l/m 1.2 km/h (1 Bft) N-NW 0.50 h 290 W/m 13.8 C 15.9 C 2.5 km/h (1 Bft)
14.10.2008 12:00 18.8 C 78 % 1022.0 hPa 0.0 l/m 2.4 km/h (1 Bft) S-SO 1.00 h 454 W/m 14.8 C 18.8 C 5.7 km/h (1 Bft)
14.10.2008 13:00 20.6 C 72 % 1021.2 hPa 0.0 l/m 2.4 km/h (1 Bft) S-SO 0.98 h 482 W/m 15.3 C 20.6 C 5.1 km/h (1 Bft)
14.10.2008 14:00 21.4 C 71 % 1020.4 hPa 0.0 l/m 2.3 km/h (1 Bft) W-SW 0.93 h 405 W/m 15.8 C 21.4 C 4.6 km/h (1 Bft)
14.10.2008 15:00 21.8 C 65 % 1019.8 hPa 0.0 l/m 5.5 km/h (1 Bft) W 0.95 h 346 W/m 15.0 C 21.8 C 8.7 km/h (2 Bft)
14.10.2008 16:00 21.8 C 65 % 1019.5 hPa 0.0 l/m 5.3 km/h (1 Bft) W 1.00 h 235 W/m 15.0 C 21.8 C 9.5 km/h (2 Bft)
14.10.2008 17:00 20.8 C 70 % 1019.3 hPa 0.0 l/m 3.0 km/h (1 Bft) W-SW 0.55 h 99 W/m 15.0 C 20.8 C 5.9 km/h (2 Bft)
14.10.2008 18:00 18.6 C 76 % 1019.5 hPa 0.0 l/m 0.8 km/h (0 Bft) W 0.05 h 17 W/m 14.3 C 18.6 C 2.1 km/h (1 Bft)
14.10.2008 19:00 17.4 C 79 % 1020.0 hPa 0.0 l/m 1.9 km/h (1 Bft) W-SW 0.00 h 0 W/m 13.7 C 17.4 C 4.2 km/h (1 Bft)
14.10.2008 20:00 16.6 C 82 % 1020.6 hPa 0.0 l/m 1.8 km/h (1 Bft) W-NW 0.00 h 0 W/m 13.6 C 16.6 C 4.0 km/h (1 Bft)
14.10.2008 21:00 16.2 C 85 % 1020.7 hPa 0.0 l/m 1.9 km/h (1 Bft) N-NW 0.00 h 0 W/m 13.7 C 16.2 C 4.3 km/h (1 Bft)
14.10.2008 22:00 15.4 C 90 % 1020.9 hPa 0.0 l/m 0.3 km/h (0 Bft) W 0.00 h 0 W/m 13.8 C 15.4 C 0.9 km/h (0 Bft)
14.10.2008 23:00 15.2 C 92 % 1020.8 hPa 0.0 l/m 0.9 km/h (0 Bft) W 0.00 h 0 W/m 13.9 C 15.2 C 2.1 km/h (1 Bft)
15.10.2008 00:00 14.5 C 94 % 1020.7 hPa 0.0 l/m 0.0 km/h (0 Bft) N 0.00 h 0 W/m 13.6 C 14.5 C 0.1 km/h (0 Bft)
15.10.2008 01:00 14.2 C 96 % 1020.5 hPa 0.0 l/m 0.0 km/h (0 Bft) N 0.00 h 0 W/m 13.6 C 14.2 C 0.2 km/h (0 Bft)
15.10.2008 02:00 13.8 C 98 % 1020.2 hPa 0.0 l/m 0.0 km/h (0 Bft) N 0.00 h 0 W/m 13.5 C 13.8 C 0.0 km/h (0 Bft)
15.10.2008 03:00 13.2 C 99 % 1020.1 hPa 0.0 l/m 0.3 km/h (0 Bft) N-NO 0.00 h 0 W/m 13.0 C 13.2 C 0.7 km/h (0 Bft)
15.10.2008 04:00 12.7 C 100 % 1020.1 hPa 0.0 l/m 0.0 km/h (0 Bft) N 0.00 h 0 W/m 12.7 C 12.7 C 0.1 km/h (0 Bft)
15.10.2008 05:00 12.8 C 100 % 1020.0 hPa 0.0 l/m 1.2 km/h (1 Bft) SO 0.00 h 0 W/m 12.8 C 12.8 C 2.2 km/h (1 Bft)
15.10.2008 06:00 13.1 C 100 % 1020.2 hPa 0.0 l/m 0.5 km/h (0 Bft) O-SO 0.00 h 0 W/m 13.1 C 13.1 C 1.2 km/h (1 Bft)
15.10.2008 07:00 12.9 C 100 % 1020.1 hPa 0.0 l/m 1.5 km/h (1 Bft) O-SO 0.00 h 6 W/m 12.9 C 12.9 C 2.9 km/h (1 Bft)
15.10.2008 08:00 13.2 C 99 % 1020.6 hPa 0.0 l/m 0.2 km/h (0 Bft) SO 0.00 h 21 W/m 13.0 C 13.2 C 1.0 km/h (0 Bft)
15.10.2008 09:00 14.2 C 95 % 1020.8 hPa 0.0 l/m 1.7 km/h (1 Bft) S 0.23 h 117 W/m 13.5 C 14.2 C 4.3 km/h (1 Bft)
15.10.2008 10:00 15.3 C 90 % 1020.9 hPa 0.0 l/m 2.2 km/h (1 Bft) S-SO 0.00 h 125 W/m 13.7 C 15.3 C 5.0 km/h (1 Bft)
15.10.2008 11:00 17.2 C 83 % 1020.6 hPa 0.0 l/m 3.1 km/h (1 Bft) S-SO 0.75 h 342 W/m 14.3 C 17.2 C 7.0 km/h (2 Bft)
15.10.2008 12:00 18.7 C 77 % 1020.1 hPa 0.0 l/m 3.4 km/h (1 Bft) S 0.70 h 365 W/m 14.5 C 18.7 C 7.3 km/h (2 Bft)
15.10.2008 13:00 19.5 C 75 % 1019.3 hPa 0.0 l/m 1.9 km/h (1 Bft) W-NW 0.35 h 297 W/m 14.9 C 19.5 C 4.4 km/h (1 Bft)
15.10.2008 14:00 19.7 C 74 % 1018.4 hPa 0.0 l/m 1.5 km/h (1 Bft) W-NW 0.38 h 260 W/m 14.9 C 19.7 C 3.0 km/h (1 Bft)
15.10.2008 15:00 20.3 C 72 % 1017.8 hPa 0.0 l/m 3.4 km/h (1 Bft) W 0.42 h 240 W/m 15.1 C 20.3 C 6.1 km/h (2 Bft)
15.10.2008 16:00 20.3 C 71 % 1017.4 hPa 0.0 l/m 8.6 km/h (2 Bft) W 0.67 h 205 W/m 14.8 C 20.3 C 13.0 km/h (3 Bft)
15.10.2008 17:00 19.1 C 74 % 1017.2 hPa 0.0 l/m 8.0 km/h (2 Bft) W-NW 0.52 h 96 W/m 14.4 C 19.1 C 12.9 km/h (3 Bft)
15.10.2008 18:00 17.5 C 78 % 1017.5 hPa 0.0 l/m 5.4 km/h (1 Bft) W 0.00 h 18 W/m 13.7 C 17.5 C 9.0 km/h (2 Bft)
15.10.2008 19:00 16.7 C 82 % 1017.8 hPa 0.0 l/m 3.7 km/h (1 Bft) W 0.00 h 0 W/m 13.6 C 16.7 C 6.4 km/h (2 Bft)
15.10.2008 20:00 16.5 C 82 % 1017.7 hPa 0.0 l/m 2.3 km/h (1 Bft) W-NW 0.00 h 0 W/m 13.4 C 16.5 C 4.5 km/h (1 Bft)
15.10.2008 21:00 16.2 C 84 % 1017.6 hPa 0.0 l/m 0.9 km/h (0 Bft) S-SO 0.00 h 0 W/m 13.4 C 16.2 C 2.5 km/h (1 Bft)
15.10.2008 22:00 15.9 C 86 % 1017.5 hPa 0.0 l/m 1.6 km/h (1 Bft) S-SO 0.00 h 0 W/m 13.5 C 15.9 C 3.8 km/h (1 Bft)
15.10.2008 23:00 15.5 C 87 % 1016.9 hPa 0.0 l/m 1.4 km/h (1 Bft) S-SO 0.00 h 0 W/m 13.4 C 15.5 C 3.8 km/h (1 Bft)
16.10.2008 00:00 15.6 C 86 % 1016.7 hPa 0.0 l/m 6.3 km/h (2 Bft) W 0.00 h 0 W/m 13.2 C 15.6 C 10.9 km/h (2 Bft)
16.10.2008 01:00 15.9 C 80 % 1016.6 hPa 0.0 l/m 13.6 km/h (3 Bft) W 0.00 h 0 W/m 12.3 C 15.9 C 20.8 km/h (4 Bft)
16.10.2008 02:00 15.5 C 79 % 1016.4 hPa 0.0 l/m 12.3 km/h (3 Bft) W 0.00 h 0 W/m 11.9 C 15.5 C 18.6 km/h (3 Bft)
16.10.2008 03:00 14.1 C 91 % 1016.3 hPa 1.2 l/m 10.1 km/h (2 Bft) W 0.00 h 0 W/m 12.7 C 14.1 C 16.2 km/h (3 Bft)
16.10.2008 04:00 13.6 C 97 % 1015.8 hPa 0.6 l/m 4.7 km/h (1 Bft) W 0.00 h 0 W/m 13.2 C 13.6 C 8.6 km/h (2 Bft)
16.10.2008 05:00 13.6 C 98 % 1015.4 hPa 0.0 l/m 0.1 km/h (0 Bft) S-SW 0.00 h 0 W/m 13.3 C 13.6 C 0.8 km/h (0 Bft)
16.10.2008 06:00 13.6 C 99 % 1015.1 hPa 0.2 l/m 1.1 km/h (1 Bft) W 0.00 h 0 W/m 13.4 C 13.6 C 2.6 km/h (1 Bft)
16.10.2008 07:00 13.5 C 99 % 1014.5 hPa 1.0 l/m 0.2 km/h (0 Bft) S 0.00 h 0 W/m 13.4 C 13.5 C 1.0 km/h (0 Bft)
16.10.2008 08:00 13.6 C 99 % 1014.1 hPa 0.4 l/m 0.4 km/h (0 Bft) W-SW 0.00 h 14 W/m 13.5 C 13.6 C 2.1 km/h (1 Bft)
16.10.2008 09:00 13.8 C 100 % 1014.0 hPa 2.0 l/m 1.2 km/h (1 Bft) SW 0.00 h 22 W/m 13.8 C 13.8 C 3.3 km/h (1 Bft)
16.10.2008 10:00 13.9 C 100 % 1013.8 hPa 2.8 l/m 1.1 km/h (1 Bft) W 0.00 h 53 W/m 13.9 C 13.9 C 2.9 km/h (1 Bft)
16.10.2008 11:00 13.9 C 100 % 1013.6 hPa 2.0 l/m 1.8 km/h (1 Bft) W-SW 0.00 h 63 W/m 13.9 C 13.9 C 4.3 km/h (1 Bft)
16.10.2008 12:00 13.7 C 100 % 1013.6 hPa 0.6 l/m 10.6 km/h (2 Bft) W 0.00 h 136 W/m 13.7 C 13.7 C 17.6 km/h (3 Bft)
16.10.2008 13:00 14.2 C 100 % 1013.0 hPa 0.2 l/m 3.1 km/h (1 Bft) W 0.00 h 141 W/m 14.2 C 14.2 C 6.0 km/h (2 Bft)
16.10.2008 14:00 15.0 C 99 % 1012.2 hPa 0.0 l/m 1.5 km/h (1 Bft) W-SW 0.02 h 164 W/m 14.8 C 15.0 C 4.3 km/h (1 Bft)
16.10.2008 15:00 15.2 C 97 % 1011.6 hPa 0.8 l/m 2.7 km/h (1 Bft) W-SW 0.02 h 120 W/m 14.7 C 15.2 C 5.6 km/h (1 Bft)
16.10.2008 16:00 13.9 C 98 % 1011.9 hPa 1.8 l/m 12.8 km/h (3 Bft) W 0.02 h 70 W/m 13.5 C 13.9 C 19.9 km/h (4 Bft)
16.10.2008 17:00 11.6 C 97 % 1012.9 hPa 0.0 l/m 14.6 km/h (3 Bft) W 0.12 h 71 W/m 11.1 C 11.6 C 23.6 km/h (4 Bft)
16.10.2008 18:00 10.8 C 94 % 1013.9 hPa 0.0 l/m 15.0 km/h (3 Bft) W 0.00 h 16 W/m 9.9 C 10.8 C 23.3 km/h (4 Bft)
16.10.2008 19:00 11.1 C 93 % 1014.7 hPa 0.0 l/m 12.4 km/h (3 Bft) W 0.00 h 0 W/m 10.0 C 11.1 C 20.0 km/h (4 Bft)
16.10.2008 20:00 11.5 C 90 % 1015.0 hPa 0.0 l/m 16.0 km/h (3 Bft) W 0.00 h 0 W/m 10.0 C 11.5 C 24.6 km/h (4 Bft)
16.10.2008 21:00 11.9 C 88 % 1016.0 hPa 0.0 l/m 13.1 km/h (3 Bft) W 0.00 h 0 W/m 10.0 C 11.9 C 20.5 km/h (4 Bft)
16.10.2008 22:00 11.7 C 89 % 1016.6 hPa 0.2 l/m 9.8 km/h (2 Bft) W 0.00 h 0 W/m 9.8 C 11.7 C 15.7 km/h (3 Bft)
16.10.2008 23:00 10.0 C 91 % 1017.5 hPa 0.8 l/m 2.9 km/h (1 Bft) W-NW 0.00 h 0 W/m 8.6 C 10.0 C 5.0 km/h (1 Bft)
17.10.2008 00:00 9.5 C 95 % 1018.0 hPa 0.0 l/m 0.8 km/h (0 Bft) W-NW 0.00 h 0 W/m 8.7 C 9.5 C 2.2 km/h (1 Bft)
17.10.2008 01:00 9.1 C 96 % 1018.3 hPa 0.0 l/m 0.8 km/h (0 Bft) W-NW 0.00 h 0 W/m 8.5 C 9.1 C 2.3 km/h (1 Bft)
17.10.2008 02:00 8.8 C 95 % 1018.3 hPa 0.0 l/m 0.2 km/h (0 Bft) W-SW 0.00 h 0 W/m 8.1 C 8.8 C 0.5 km/h (0 Bft)
17.10.2008 03:00 8.6 C 96 % 1018.6 hPa 0.0 l/m 0.8 km/h (0 Bft) S-SO 0.00 h 0 W/m 8.0 C 8.6 C 1.5 km/h (1 Bft)
17.10.2008 04:00 8.2 C 97 % 1018.9 hPa 0.2 l/m 0.0 km/h (0 Bft) SO 0.00 h 0 W/m 7.8 C 8.2 C 0.3 km/h (0 Bft)
17.10.2008 05:00 8.1 C 99 % 1019.2 hPa 0.0 l/m 0.1 km/h (0 Bft) SO 0.00 h 0 W/m 7.9 C 8.1 C 0.3 km/h (0 Bft)
17.10.2008 06:00 7.1 C 99 % 1019.3 hPa 0.0 l/m 0.1 km/h (0 Bft) S-SO 0.00 h 0 W/m 7.0 C 7.1 C 0.4 km/h (0 Bft)
17.10.2008 07:00 6.8 C 99 % 1019.6 hPa 0.0 l/m 0.6 km/h (0 Bft) S-SO 0.00 h 6 W/m 6.6 C 6.8 C 1.6 km/h (1 Bft)
17.10.2008 08:00 6.2 C 98 % 1020.2 hPa 0.0 l/m 1.6 km/h (1 Bft) W-NW 0.08 h 30 W/m 5.9 C 6.2 C 3.8 km/h (1 Bft)
17.10.2008 09:00 6.8 C 97 % 1020.7 hPa 0.0 l/m 2.3 km/h (1 Bft) W-NW 0.12 h 107 W/m 6.3 C 6.7 C 4.4 km/h (1 Bft)
17.10.2008 10:00 8.2 C 92 % 1021.0 hPa 0.0 l/m 0.8 km/h (0 Bft) N-NW 0.47 h 244 W/m 6.9 C 8.2 C 2.1 km/h (1 Bft)
17.10.2008 11:00 9.7 C 84 % 1020.9 hPa 0.0 l/m 0.9 km/h (0 Bft) W-NW 0.97 h 436 W/m 7.0 C 9.7 C 2.2 km/h (1 Bft)
17.10.2008 12:00 11.3 C 76 % 1020.8 hPa 0.0 l/m 0.8 km/h (0 Bft) W-NW 1.00 h 517 W/m 7.2 C 11.3 C 2.4 km/h (1 Bft)
17.10.2008 13:00 12.4 C 65 % 1020.2 hPa 0.0 l/m 2.6 km/h (1 Bft) W 0.90 h 524 W/m 6.1 C 12.4 C 4.6 km/h (1 Bft)
17.10.2008 14:00 13.3 C 59 % 1019.6 hPa 0.0 l/m 3.1 km/h (1 Bft) W 0.97 h 507 W/m 5.3 C 13.3 C 5.1 km/h (1 Bft)
17.10.2008 15:00 14.0 C 56 % 1019.4 hPa 0.0 l/m 3.0 km/h (1 Bft) N-NW 0.93 h 437 W/m 5.3 C 14.0 C 5.8 km/h (2 Bft)
17.10.2008 16:00 14.2 C 56 % 1019.2 hPa 0.0 l/m 4.6 km/h (1 Bft) N-NW 0.85 h 286 W/m 5.4 C 14.2 C 7.6 km/h (2 Bft)
17.10.2008 17:00 11.6 C 67 % 1019.4 hPa 0.0 l/m 0.5 km/h (0 Bft) N-NW 0.37 h 51 W/m 5.6 C 11.6 C 1.5 km/h (1 Bft)
17.10.2008 18:00 10.5 C 74 % 1020.0 hPa 0.0 l/m 0.0 km/h (0 Bft) N 0.03 h 19 W/m 6.0 C 10.5 C 0.2 km/h (0 Bft)
17.10.2008 19:00 8.5 C 83 % 1020.8 hPa 0.0 l/m 0.9 km/h (0 Bft) N-NO 0.00 h 0 W/m 5.7 C 8.5 C 1.7 km/h (1 Bft)
17.10.2008 20:00 7.8 C 83 % 1021.1 hPa 0.0 l/m 0.3 km/h (0 Bft) N-NO 0.00 h 0 W/m 5.1 C 7.8 C 1.1 km/h (1 Bft)
17.10.2008 21:00 7.0 C 84 % 1021.1 hPa 0.0 l/m 0.0 km/h (0 Bft) N 0.00 h 0 W/m 4.5 C 7.0 C 0.4 km/h (0 Bft)
17.10.2008 22:00 6.3 C 86 % 1021.2 hPa 0.0 l/m 0.2 km/h (0 Bft) N-NO 0.00 h 0 W/m 4.2 C 6.3 C 0.6 km/h (0 Bft)
17.10.2008 23:00 5.5 C 89 % 1021.2 hPa 0.0 l/m 1.2 km/h (1 Bft) N-NW 0.00 h 0 W/m 3.8 C 5.4 C 3.0 km/h (1 Bft)
18.10.2008 00:00 5.0 C 90 % 1020.9 hPa 0.0 l/m 0.1 km/h (0 Bft) N-NW 0.00 h 0 W/m 3.5 C 5.0 C 0.6 km/h (0 Bft)
18.10.2008 01:00 4.4 C 91 % 1020.6 hPa 0.0 l/m 0.3 km/h (0 Bft) NO 0.00 h 0 W/m 3.0 C 4.4 C 1.3 km/h (1 Bft)
18.10.2008 02:00 3.9 C 92 % 1020.5 hPa 0.0 l/m 1.2 km/h (1 Bft) NO 0.00 h 0 W/m 2.6 C 3.8 C 2.5 km/h (1 Bft)
18.10.2008 03:00 3.2 C 94 % 1020.0 hPa 0.0 l/m 0.7 km/h (0 Bft) O 0.00 h 0 W/m 2.2 C 3.2 C 1.5 km/h (1 Bft)
18.10.2008 04:00 2.9 C 95 % 1020.1 hPa 0.0 l/m 1.3 km/h (1 Bft) O 0.00 h 0 W/m 2.1 C 2.8 C 2.4 km/h (1 Bft)
18.10.2008 05:00 2.6 C 95 % 1019.9 hPa 0.0 l/m 0.9 km/h (0 Bft) O 0.00 h 0 W/m 1.9 C 2.6 C 1.8 km/h (1 Bft)
18.10.2008 06:00 2.2 C 96 % 1020.2 hPa 0.0 l/m 1.1 km/h (1 Bft) O 0.00 h 0 W/m 1.6 C 2.2 C 2.0 km/h (1 Bft)
18.10.2008 07:00 1.9 C 96 % 1020.4 hPa 0.0 l/m 0.3 km/h (0 Bft) O 0.00 h 7 W/m 1.4 C 1.9 C 0.8 km/h (0 Bft)
18.10.2008 08:00 2.1 C 97 % 1020.7 hPa 0.0 l/m 0.0 km/h (0 Bft) N 0.18 h 45 W/m 1.7 C 2.1 C 0.1 km/h (0 Bft)
18.10.2008 09:00 3.7 C 99 % 1020.9 hPa 0.0 l/m 0.0 km/h (0 Bft) O 0.65 h 152 W/m 3.5 C 3.7 C 0.6 km/h (0 Bft)
18.10.2008 10:00 6.3 C 88 % 1020.9 hPa 0.0 l/m 0.0 km/h (0 Bft) O 1.00 h 313 W/m 4.5 C 6.3 C 0.6 km/h (0 Bft)
18.10.2008 11:00 9.3 C 75 % 1020.7 hPa 0.0 l/m 1.1 km/h (1 Bft) N 1.00 h 416 W/m 5.0 C 9.3 C 2.6 km/h (1 Bft)
18.10.2008 12:00 10.9 C 68 % 1020.4 hPa 0.0 l/m 0.8 km/h (0 Bft) S 1.00 h 471 W/m 5.2 C 10.9 C 2.8 km/h (1 Bft)
18.10.2008 13:00 12.1 C 66 % 1020.0 hPa 0.0 l/m 1.2 km/h (1 Bft) SO 1.00 h 484 W/m 5.9 C 12.1 C 3.2 km/h (1 Bft)
18.10.2008 14:00 13.1 C 63 % 1019.6 hPa 0.0 l/m 1.7 km/h (1 Bft) NW 1.00 h 444 W/m 6.2 C 13.1 C 3.7 km/h (1 Bft)
18.10.2008 15:00 13.9 C 62 % 1019.2 hPa 0.0 l/m 1.3 km/h (1 Bft) S-SO 1.00 h 353 W/m 6.6 C 13.9 C 3.3 km/h (1 Bft)
18.10.2008 16:00 14.3 C 62 % 1019.1 hPa 0.0 l/m 1.1 km/h (1 Bft) S-SO 0.82 h 219 W/m 7.2 C 14.3 C 2.8 km/h (1 Bft)
18.10.2008 17:00 13.3 C 68 % 1019.4 hPa 0.0 l/m 0.3 km/h (0 Bft) S-SW 0.17 h 77 W/m 7.4 C 13.3 C 2.1 km/h (1 Bft)
18.10.2008 18:00 11.8 C 69 % 1019.9 hPa 0.0 l/m 0.6 km/h (0 Bft) S 0.15 h 20 W/m 6.4 C 11.8 C 2.2 km/h (1 Bft)
18.10.2008 19:00 10.6 C 75 % 1020.8 hPa 0.0 l/m 2.7 km/h (1 Bft) O 0.00 h 0 W/m 6.3 C 10.6 C 4.5 km/h (1 Bft)
18.10.2008 20:00 8.9 C 83 % 1021.5 hPa 0.0 l/m 3.8 km/h (1 Bft) O 0.00 h 0 W/m 6.1 C 8.7 C 5.3 km/h (1 Bft)
18.10.2008 21:00 7.6 C 87 % 1022.1 hPa 0.0 l/m 3.7 km/h (1 Bft) O-SO 0.00 h 0 W/m 5.6 C 7.3 C 5.3 km/h (1 Bft)
18.10.2008 22:00 7.0 C 88 % 1022.7 hPa 0.0 l/m 1.0 km/h (0 Bft) O-SO 0.00 h 0 W/m 5.1 C 7.0 C 2.0 km/h (1 Bft)
18.10.2008 23:00 6.6 C 91 % 1022.8 hPa 0.0 l/m 0.7 km/h (0 Bft) O-SO 0.00 h 0 W/m 5.2 C 6.6 C 1.5 km/h (1 Bft)
19.10.2008 00:00 6.9 C 91 % 1022.9 hPa 0.0 l/m 0.3 km/h (0 Bft) O-SO 0.00 h 0 W/m 5.5 C 6.9 C 0.7 km/h (0 Bft)
19.10.2008 01:00 6.5 C 92 % 1023.1 hPa 0.0 l/m 1.1 km/h (1 Bft) O-SO 0.00 h 0 W/m 5.3 C 6.5 C 2.3 km/h (1 Bft)
19.10.2008 02:00 6.8 C 93 % 1023.3 hPa 0.0 l/m 0.1 km/h (0 Bft) O-SO 0.00 h 0 W/m 5.7 C 6.8 C 0.5 km/h (0 Bft)
19.10.2008 03:00 7.0 C 94 % 1023.3 hPa 0.0 l/m 0.2 km/h (0 Bft) O-SO 0.00 h 0 W/m 6.0 C 7.0 C 0.5 km/h (0 Bft)
19.10.2008 04:00 6.2 C 95 % 1023.3 hPa 0.0 l/m 0.2 km/h (0 Bft) O-SO 0.00 h 0 W/m 5.5 C 6.2 C 0.6 km/h (0 Bft)
19.10.2008 05:00 5.6 C 97 % 1023.7 hPa 0.0 l/m 0.0 km/h (0 Bft) O-SO 0.00 h 0 W/m 5.2 C 5.6 C 0.2 km/h (0 Bft)
19.10.2008 06:00 5.1 C 98 % 1023.9 hPa 0.0 l/m 0.0 km/h (0 Bft) N 0.00 h 0 W/m 4.8 C 5.1 C 0.0 km/h (0 Bft)
19.10.2008 07:00 5.1 C 98 % 1024.0 hPa 0.0 l/m 0.6 km/h (0 Bft) O-SO 0.00 h 5 W/m 4.9 C 5.1 C 1.2 km/h (1 Bft)
19.10.2008 08:00 4.9 C 99 % 1024.7 hPa 0.0 l/m 0.0 km/h (0 Bft) N 0.00 h 34 W/m 4.8 C 4.9 C 0.1 km/h (0 Bft)
19.10.2008 09:00 6.0 C 99 % 1025.4 hPa 0.0 l/m 0.0 km/h (0 Bft) N 0.18 h 105 W/m 5.8 C 6.0 C 0.1 km/h (0 Bft)
19.10.2008 10:00 8.0 C 93 % 1025.5 hPa 0.0 l/m 0.2 km/h (0 Bft) O-SO 0.18 h 183 W/m 6.9 C 8.0 C 1.0 km/h (0 Bft)
19.10.2008 11:00 10.5 C 82 % 1025.4 hPa 0.0 l/m 0.7 km/h (0 Bft) NW 0.93 h 410 W/m 7.5 C 10.5 C 2.1 km/h (1 Bft)
19.10.2008 12:00 12.7 C 74 % 1025.1 hPa 0.0 l/m 1.7 km/h (1 Bft) NW 1.00 h 478 W/m 8.3 C 12.7 C 3.6 km/h (1 Bft)
19.10.2008 13:00 14.4 C 69 % 1024.3 hPa 0.0 l/m 1.6 km/h (1 Bft) N-NW 1.00 h 476 W/m 8.8 C 14.4 C 3.1 km/h (1 Bft)
19.10.2008 14:00 15.7 C 66 % 1023.4 hPa 0.0 l/m 1.2 km/h (1 Bft) S-SO 1.00 h 457 W/m 9.4 C 15.7 C 2.7 km/h (1 Bft)
19.10.2008 15:00 16.3 C 63 % 1022.8 hPa 0.0 l/m 1.4 km/h (1 Bft) SO 1.00 h 360 W/m 9.3 C 16.3 C 3.2 km/h (1 Bft)
19.10.2008 16:00 16.4 C 62 % 1022.7 hPa 0.0 l/m 0.7 km/h (0 Bft) O-SO 1.00 h 237 W/m 9.1 C 16.4 C 2.2 km/h (1 Bft)
19.10.2008 17:00 16.3 C 65 % 1022.4 hPa 0.0 l/m 0.5 km/h (0 Bft) O-SO 0.77 h 98 W/m 9.8 C 16.3 C 1.6 km/h (1 Bft)
19.10.2008 18:00 14.6 C 75 % 1022.6 hPa 0.0 l/m 1.3 km/h (1 Bft) O-SO 0.03 h 15 W/m 10.2 C 14.6 C 1.9 km/h (1 Bft)
19.10.2008 19:00 12.4 C 81 % 1023.1 hPa 0.0 l/m 2.5 km/h (1 Bft) O-SO 0.00 h 0 W/m 9.3 C 12.4 C 3.8 km/h (1 Bft)
19.10.2008 20:00 10.8 C 87 % 1023.5 hPa 0.0 l/m 0.3 km/h (0 Bft) O-SO 0.00 h 0 W/m 8.6 C 10.8 C 1.2 km/h (1 Bft)
19.10.2008 21:00 9.3 C 90 % 1023.7 hPa 0.0 l/m 0.1 km/h (0 Bft) O-SO 0.00 h 0 W/m 7.8 C 9.3 C 0.3 km/h (0 Bft)
19.10.2008 22:00 8.4 C 93 % 1023.9 hPa 0.0 l/m 0.1 km/h (0 Bft) O-SO 0.00 h 0 W/m 7.3 C 8.4 C 0.6 km/h (0 Bft)
19.10.2008 23:00 7.8 C 94 % 1023.7 hPa 0.0 l/m 0.0 km/h (0 Bft) O-SO 0.00 h 0 W/m 6.9 C 7.8 C 0.3 km/h (0 Bft)
Min-Datum _ 18.10.08 17.10.08 16.10.08 - 13.10.08 - - - 18.10.08 18.10.08 13.10.08
_ Min-Zeit 08:00 15:01 15:30 - 00:00 - - - 06:40 06:14 00:02
Minimum _ 1.7 C 50 % 1011.4 hPa - 0.0 km/h (0 Bft) - - - 1.2 C 1.0 C 0.0 km/h (0 Bft)
Max-Datum _ 14.10.08 13.10.08 13.10.08 16.10.08 16.10.08 - 13.10.08 13.10.08 14.10.08 14.10.08 16.10.08
_ Max-Zeit 15:43 00:00 00:00 10:03 16:54 - 09:41 12:57 14:49 15:43 16:54
Maximum _ 22.1 C 100 % 1026.4 hPa 2.8 l/m 27.8 km/h
W (4 Bft)
- 0.02 h 631 W/m 16.8 C 22.1 C 45.2 km/h
W-NW (6 Bft)
Durchschnitt _ 12.1 C 88 % 1020.4 hPa #15.0 l/m 2.0 km/h (1 Bft) W #36:45 h 205 W/m 9.9 C 12.1 C 3.8 km/h (1 Bft)
© Kaiko 2008